createdAt,value
2018-01-20T00:00:27.181Z,413.00
2018-01-20T00:02:56.361Z,388.03
2018-01-20T00:05:25.553Z,391.67
2018-01-20T00:07:54.736Z,402.50
2018-01-20T00:10:29.724Z,368.80
2018-01-20T00:12:58.898Z,363.00
2018-01-20T00:15:28.091Z,374.40
2018-01-20T00:18:03.168Z,367.67
2018-01-20T00:20:32.370Z,362.03
2018-01-20T00:23:01.528Z,366.10
2018-01-20T00:25:30.686Z,392.27
2018-01-20T00:27:59.885Z,404.27
2018-01-20T00:30:29.033Z,398.50
2018-01-20T00:32:58.222Z,368.90
2018-01-20T00:35:27.356Z,396.30
2018-01-20T00:37:56.572Z,385.90
2018-01-20T00:40:25.718Z,387.10
2018-01-20T00:42:54.876Z,392.03
2018-01-20T00:45:24.026Z,388.33
2018-01-20T00:47:53.181Z,431.80
2018-01-20T00:50:22.370Z,428.60
2018-01-20T00:52:51.520Z,392.07
2018-01-20T00:55:20.670Z,404.37
2018-01-20T00:57:49.823Z,377.20
2018-01-20T01:00:18.973Z,348.60
2018-01-20T01:02:48.129Z,338.77
2018-01-20T01:05:17.291Z,329.00
2018-01-20T01:07:46.478Z,338.17
2018-01-20T01:10:15.619Z,319.97
2018-01-20T01:12:44.800Z,314.30
2018-01-20T01:15:13.959Z,326.37
2018-01-20T01:17:43.139Z,326.10
2018-01-20T01:20:12.279Z,326.87
2018-01-20T01:22:41.458Z,332.97
2018-01-20T01:25:10.826Z,328.60
2018-01-20T01:27:39.973Z,344.40
2018-01-20T01:30:09.123Z,338.37
2018-01-20T01:32:38.261Z,356.03
2018-01-20T01:35:07.433Z,351.40
2018-01-20T01:37:36.588Z,338.97
2018-01-20T01:40:05.786Z,344.83
2018-01-20T01:42:34.969Z,341.27
2018-01-20T01:45:04.127Z,365.10
2018-01-20T01:47:33.317Z,363.83
2018-01-20T01:50:02.471Z,371.97
2018-01-20T01:52:31.630Z,380.60
2018-01-20T01:55:00.775Z,385.97
2018-01-20T01:57:29.967Z,395.47
2018-01-20T01:59:59.122Z,392.00
2018-01-20T02:02:28.273Z,386.17
2018-01-20T02:04:57.419Z,406.37
2018-01-20T02:07:26.594Z,389.60
2018-01-20T02:09:55.801Z,411.03
2018-01-20T02:12:24.954Z,431.37
2018-01-20T02:14:54.116Z,430.13
2018-01-20T02:17:23.288Z,448.97
2018-01-20T02:19:52.497Z,467.43
2018-01-20T02:22:21.692Z,463.77
2018-01-20T02:24:50.838Z,456.73
2018-01-20T02:27:20.014Z,470.37
2018-01-20T02:29:49.165Z,474.77
2018-01-20T02:32:18.362Z,471.63
2018-01-20T02:34:47.501Z,471.47
2018-01-20T02:37:16.703Z,487.83
2018-01-20T02:39:45.913Z,497.07
2018-01-20T02:42:15.097Z,503.03
2018-01-20T02:44:44.251Z,492.03
2018-01-20T02:47:13.434Z,508.43
2018-01-20T02:49:42.574Z,511.73
2018-01-20T02:52:11.758Z,519.13
2018-01-20T02:54:40.901Z,529.87
2018-01-20T02:57:10.073Z,555.73
2018-01-20T02:59:39.228Z,569.13
2018-01-20T03:02:08.392Z,594.87
2018-01-20T03:04:37.537Z,608.23
2018-01-20T03:07:06.723Z,653.20
2018-01-20T03:09:35.880Z,676.50
2018-01-20T03:12:05.068Z,673.13
2018-01-20T03:14:34.211Z,674.10
2018-01-20T03:17:03.390Z,658.03
2018-01-20T03:19:32.529Z,651.93
2018-01-20T03:22:01.689Z,634.97
2018-01-20T03:24:30.842Z,655.87
2018-01-20T03:27:00.046Z,654.43
2018-01-20T03:29:29.221Z,650.60
2018-01-20T03:31:58.417Z,639.50
2018-01-20T03:34:27.601Z,616.73
2018-01-20T03:36:56.746Z,652.33
2018-01-20T03:39:25.893Z,695.53
2018-01-20T03:41:55.037Z,697.07
2018-01-20T03:44:24.234Z,750.47
2018-01-20T03:46:53.387Z,743.07
2018-01-20T03:49:22.558Z,742.63
2018-01-20T03:51:51.752Z,753.90
2018-01-20T03:54:20.892Z,762.20
2018-01-20T03:56:50.065Z,753.00
2018-01-20T03:59:19.201Z,773.10
2018-01-20T04:01:48.389Z,761.23
2018-01-20T04:04:17.573Z,745.27
2018-01-20T04:06:46.719Z,746.73
2018-01-20T04:09:15.899Z,762.87
2018-01-20T04:11:45.049Z,760.37
2018-01-20T04:14:14.289Z,772.93
2018-01-20T04:16:43.446Z,755.53
2018-01-20T04:19:12.613Z,769.60
2018-01-20T04:21:41.760Z,792.63
2018-01-20T04:24:10.901Z,789.17
2018-01-20T04:26:40.061Z,787.33
2018-01-20T04:29:09.255Z,787.07
2018-01-20T04:31:38.432Z,806.40
2018-01-20T04:34:07.592Z,816.23
2018-01-20T04:36:36.807Z,819.93
2018-01-20T04:39:05.951Z,808.40
2018-01-20T04:41:35.097Z,783.77
2018-01-20T04:44:04.294Z,767.53
2018-01-20T04:46:33.446Z,765.70
2018-01-20T04:49:02.724Z,755.47
2018-01-20T04:51:31.874Z,736.30
2018-01-20T04:54:01.226Z,743.77
2018-01-20T04:56:30.723Z,722.43
2018-01-20T04:59:00.503Z,731.07
2018-01-20T05:01:29.827Z,720.90
2018-01-20T05:03:58.984Z,733.23
2018-01-20T05:06:29.208Z,748.67
2018-01-20T05:08:58.422Z,755.33
2018-01-20T05:11:27.787Z,743.40
2018-01-20T05:13:57.036Z,746.37
2018-01-20T05:16:26.195Z,743.07
2018-01-20T05:18:55.428Z,736.90
2018-01-20T05:21:24.686Z,767.13
2018-01-20T05:23:53.969Z,778.60
2018-01-20T05:26:24.350Z,769.27
2018-01-20T05:28:53.931Z,786.10
2018-01-20T05:31:23.113Z,773.10
2018-01-20T05:33:52.309Z,762.20
2018-01-20T05:36:21.456Z,781.57
2018-01-20T05:38:50.625Z,777.67
2018-01-20T05:41:19.762Z,767.33
2018-01-20T05:43:48.968Z,732.43
2018-01-20T05:46:18.118Z,698.00
2018-01-20T05:48:47.322Z,673.90
2018-01-20T05:51:16.432Z,647.43
2018-01-20T05:53:45.605Z,623.50
2018-01-20T05:56:14.781Z,610.03
2018-01-20T05:58:43.921Z,585.40
2018-01-20T06:01:13.109Z,582.90
2018-01-20T06:03:42.257Z,506.97
2018-01-20T06:06:11.441Z,414.00
2018-01-20T06:08:40.593Z,359.10
2018-01-20T06:11:09.773Z,333.97
2018-01-20T06:13:38.955Z,304.77
2018-01-20T06:16:08.127Z,294.30
2018-01-20T06:18:37.311Z,267.60
2018-01-20T06:21:06.466Z,272.13
2018-01-20T06:23:35.642Z,266.97
2018-01-20T06:26:04.813Z,242.37
2018-01-20T06:28:34.000Z,250.53
2018-01-20T06:31:03.148Z,276.13
2018-01-20T06:33:32.326Z,253.20
2018-01-20T06:36:01.469Z,257.43
2018-01-20T06:38:30.643Z,264.33
2018-01-20T06:40:59.801Z,261.57
2018-01-20T06:43:28.985Z,258.23
2018-01-20T06:45:58.156Z,259.00
2018-01-20T06:48:27.350Z,266.93
2018-01-20T06:50:56.508Z,274.47
2018-01-20T06:53:25.697Z,265.03
2018-01-20T06:55:54.841Z,260.97
2018-01-20T06:58:24.030Z,264.57
2018-01-20T07:00:53.182Z,271.37
2018-01-20T07:03:22.366Z,273.77
2018-01-20T07:05:51.513Z,284.63
2018-01-20T07:08:20.692Z,282.60
2018-01-20T07:10:49.845Z,296.53
2018-01-20T07:13:19.035Z,295.13
2018-01-20T07:15:48.194Z,292.27
2018-01-20T07:18:17.394Z,285.80
2018-01-20T07:20:46.547Z,327.63
2018-01-20T07:23:15.727Z,296.53
2018-01-20T07:25:44.917Z,308.57
2018-01-20T07:28:14.067Z,302.00
2018-01-20T07:30:43.251Z,296.53
2018-01-20T07:33:12.402Z,297.60
2018-01-20T07:35:41.613Z,306.83
2018-01-20T07:38:10.765Z,306.73
2018-01-20T07:40:39.913Z,318.27
2018-01-20T07:43:09.208Z,321.63
2018-01-20T07:45:38.350Z,320.43
2018-01-20T07:48:07.537Z,320.87
2018-01-20T07:50:36.682Z,336.73
2018-01-20T07:53:05.889Z,344.57
2018-01-20T07:55:35.042Z,347.57
2018-01-20T07:58:04.245Z,355.73
2018-01-20T08:00:33.606Z,390.73
2018-01-20T08:03:02.785Z,400.53
2018-01-20T08:05:31.938Z,405.23
2018-01-20T08:08:01.137Z,442.23
2018-01-20T08:10:30.381Z,446.73
2018-01-20T08:12:59.533Z,476.13
2018-01-20T08:15:28.689Z,487.10
2018-01-20T08:17:57.869Z,492.33
2018-01-20T08:20:27.021Z,506.67
2018-01-20T08:22:56.193Z,540.07
2018-01-20T08:25:25.392Z,528.80
2018-01-20T08:27:54.553Z,546.20
2018-01-20T08:30:23.730Z,554.10
2018-01-20T08:32:52.921Z,572.80
2018-01-20T08:35:22.105Z,589.57
2018-01-20T08:37:51.307Z,667.90
2018-01-20T08:40:20.489Z,683.27
2018-01-20T08:42:49.639Z,702.37
2018-01-20T08:45:18.790Z,704.33
2018-01-20T08:47:47.945Z,711.27
2018-01-20T08:50:17.129Z,730.43
2018-01-20T08:52:46.321Z,767.67
2018-01-20T08:55:15.514Z,766.50
2018-01-20T08:57:44.662Z,779.37
2018-01-20T09:00:13.901Z,788.20
2018-01-20T09:02:43.089Z,807.87
2018-01-20T09:05:12.234Z,803.70
2018-01-20T09:07:41.426Z,826.60
2018-01-20T09:10:10.605Z,849.07
2018-01-20T09:12:39.791Z,873.70
2018-01-20T09:15:08.972Z,915.90
2018-01-20T09:17:38.156Z,918.97
2018-01-20T09:20:07.302Z,930.83
2018-01-20T09:22:36.538Z,966.60
2018-01-20T09:25:05.690Z,970.53
2018-01-20T09:27:34.897Z,984.40
2018-01-20T09:30:04.049Z,996.23
2018-01-20T09:32:33.201Z,999.90
2018-01-20T09:35:02.363Z,990.23
2018-01-20T09:37:31.529Z,975.43
2018-01-20T09:40:00.730Z,952.07
2018-01-20T09:42:29.871Z,963.63
2018-01-20T09:44:59.024Z,987.30
2018-01-20T09:47:28.210Z,987.90
2018-01-20T09:49:57.371Z,980.07
2018-01-20T09:52:26.550Z,986.03
2018-01-20T09:54:55.755Z,986.70
2018-01-20T09:57:24.902Z,999.90
2018-01-20T09:59:54.075Z,996.10
2018-01-20T10:02:23.272Z,999.90
2018-01-20T10:04:52.466Z,999.90
2018-01-20T10:07:21.629Z,999.90
2018-01-20T10:09:50.815Z,999.90
2018-01-20T10:12:19.960Z,995.50
2018-01-20T10:14:49.106Z,999.90
2018-01-20T10:17:18.266Z,999.90
2018-01-20T10:19:47.424Z,999.90
2018-01-20T10:22:16.620Z,999.90
2018-01-20T10:24:45.812Z,999.90
2018-01-20T10:27:15.022Z,999.90
2018-01-20T10:29:44.171Z,999.90
2018-01-20T10:32:13.321Z,999.90
2018-01-20T10:34:42.537Z,999.90
2018-01-20T10:37:11.705Z,999.90
2018-01-20T10:39:40.881Z,999.90
2018-01-20T10:42:10.054Z,999.90
2018-01-20T10:44:39.236Z,999.90
2018-01-20T10:47:08.467Z,999.90
2018-01-20T10:49:37.645Z,999.90
2018-01-20T10:52:06.811Z,999.90
2018-01-20T10:54:35.973Z,999.90
2018-01-20T10:57:05.165Z,999.90
2018-01-20T10:59:34.313Z,999.90
2018-01-20T11:02:03.497Z,999.90
2018-01-20T11:04:32.696Z,999.90
2018-01-20T11:07:01.891Z,999.90
2018-01-20T11:09:31.056Z,999.90
2018-01-20T11:12:00.243Z,999.90
2018-01-20T11:14:29.401Z,999.90
2018-01-20T11:16:58.598Z,999.90
2018-01-20T11:19:27.797Z,999.90
2018-01-20T11:21:56.954Z,999.90
2018-01-20T11:24:26.104Z,999.90
2018-01-20T11:26:55.423Z,999.90
2018-01-20T11:29:24.589Z,999.90
2018-01-20T11:31:53.752Z,999.90
2018-01-20T11:34:22.913Z,999.90
2018-01-20T11:36:52.142Z,999.90
2018-01-20T11:39:21.297Z,999.90
2018-01-20T11:41:50.444Z,999.90
2018-01-20T11:44:19.639Z,999.90
2018-01-20T11:46:48.836Z,999.90
2018-01-20T11:49:18.003Z,999.90
2018-01-20T11:51:47.191Z,999.90
2018-01-20T11:54:16.351Z,999.90
2018-01-20T11:56:45.492Z,999.90
2018-01-20T11:59:14.647Z,999.90
2018-01-20T12:01:43.846Z,999.90
2018-01-20T12:04:13.007Z,999.90
2018-01-20T12:06:42.359Z,999.90
2018-01-20T12:09:11.538Z,999.90
2018-01-20T12:11:40.694Z,999.90
2018-01-20T12:14:09.884Z,999.90
2018-01-20T12:16:39.070Z,999.90
2018-01-20T12:19:08.273Z,999.90
2018-01-20T12:21:37.426Z,999.90
2018-01-20T12:24:06.578Z,999.90
2018-01-20T12:26:35.759Z,999.90
2018-01-20T12:29:04.918Z,999.90
2018-01-20T12:31:34.074Z,999.90
2018-01-20T12:34:03.223Z,999.90
2018-01-20T12:36:32.377Z,999.90
2018-01-20T12:39:01.527Z,999.90
2018-01-20T12:41:30.697Z,999.90
2018-01-20T12:43:59.894Z,999.90
2018-01-20T12:46:29.026Z,999.90
2018-01-20T12:48:58.222Z,999.90
2018-01-20T12:51:27.405Z,999.90
2018-01-20T12:53:56.549Z,999.90
2018-01-20T12:56:25.828Z,999.90
2018-01-20T12:58:54.973Z,999.90
2018-01-20T13:01:24.126Z,999.90
2018-01-20T13:03:53.302Z,999.90
2018-01-20T13:06:22.461Z,999.90
2018-01-20T13:08:51.660Z,999.90
2018-01-20T13:11:20.805Z,999.90
2018-01-20T13:13:49.994Z,999.90
2018-01-20T13:16:19.140Z,999.90
2018-01-20T13:18:48.342Z,999.90
2018-01-20T13:21:17.542Z,999.90
2018-01-20T13:23:46.717Z,999.90
2018-01-20T13:26:15.912Z,999.90
2018-01-20T13:28:45.072Z,999.90
2018-01-20T13:31:14.315Z,999.90
2018-01-20T13:33:43.462Z,999.90
2018-01-20T13:36:12.650Z,999.90
2018-01-20T13:38:41.802Z,999.90
2018-01-20T13:41:10.989Z,999.90
2018-01-20T13:43:40.188Z,999.90
2018-01-20T13:46:09.347Z,999.90
2018-01-20T13:48:38.542Z,999.90
2018-01-20T13:51:07.689Z,999.90
2018-01-20T13:53:36.867Z,999.90
2018-01-20T13:56:06.045Z,999.90
2018-01-20T13:58:35.199Z,999.90
2018-01-20T14:01:04.393Z,999.90
2018-01-20T14:03:33.538Z,999.90
2018-01-20T14:06:02.722Z,999.90
2018-01-20T14:08:31.945Z,999.90
2018-01-20T14:11:01.142Z,999.90
2018-01-20T14:13:30.287Z,999.90
2018-01-20T14:15:59.440Z,999.90
2018-01-20T14:18:28.642Z,999.90
2018-01-20T14:20:57.872Z,999.90
2018-01-20T14:23:27.151Z,999.90
2018-01-20T14:25:56.298Z,999.90
2018-01-20T14:28:25.448Z,999.90
2018-01-20T14:30:54.626Z,999.90
2018-01-20T14:33:23.831Z,999.90
2018-01-20T14:35:52.968Z,999.90
2018-01-20T14:38:22.136Z,999.90
2018-01-20T14:40:51.333Z,999.90
2018-01-20T14:43:20.534Z,999.90
2018-01-20T14:46:22.313Z,999.90
2018-01-20T14:48:51.505Z,999.90
2018-01-20T14:51:20.662Z,999.90
2018-01-20T14:53:49.833Z,999.90
2018-01-20T14:56:19.042Z,999.90
2018-01-20T14:58:48.197Z,999.90
2018-01-20T15:01:17.373Z,999.90
2018-01-20T15:03:46.546Z,999.90
2018-01-20T15:06:15.780Z,999.90
2018-01-20T15:08:44.937Z,999.90
2018-01-20T15:11:14.129Z,999.90
2018-01-20T15:13:43.304Z,999.90
2018-01-20T15:16:12.493Z,999.90
2018-01-20T15:18:41.696Z,999.90
2018-01-20T15:21:10.837Z,999.90
2018-01-20T15:23:40.009Z,999.90
2018-01-20T15:26:09.174Z,999.90
2018-01-20T15:28:38.354Z,999.90
2018-01-20T15:31:07.506Z,999.90
2018-01-20T15:33:36.808Z,999.90
2018-01-20T15:36:06.000Z,999.90
2018-01-20T15:38:35.146Z,999.33
2018-01-20T15:41:04.364Z,972.30
2018-01-20T15:43:33.577Z,956.27
2018-01-20T15:46:02.730Z,929.80
2018-01-20T15:48:31.924Z,891.63
2018-01-20T15:51:01.060Z,862.87
2018-01-20T15:53:30.256Z,823.80
2018-01-20T15:55:59.399Z,767.07
2018-01-20T15:58:28.603Z,752.53
2018-01-20T16:00:57.749Z,766.80
2018-01-20T16:03:26.917Z,726.97
2018-01-20T16:05:56.072Z,701.93
2018-01-20T16:08:25.269Z,633.93
2018-01-20T16:10:54.429Z,588.77
2018-01-20T16:13:23.592Z,556.70
2018-01-20T16:15:52.737Z,521.10
2018-01-20T16:18:21.897Z,472.77
2018-01-20T16:20:51.106Z,444.90
2018-01-20T16:23:20.258Z,454.43
2018-01-20T16:25:49.453Z,435.07
2018-01-20T16:28:18.589Z,419.60
2018-01-20T16:30:47.795Z,420.03
2018-01-20T16:33:16.952Z,442.60
2018-01-20T16:35:46.173Z,493.33
2018-01-20T16:38:15.478Z,499.43
2018-01-20T16:40:44.675Z,511.23
2018-01-20T16:43:13.824Z,523.60
2018-01-20T16:45:42.992Z,528.40
2018-01-20T16:48:12.124Z,544.20
2018-01-20T16:50:41.349Z,516.67
2018-01-20T16:53:10.543Z,508.20
2018-01-20T16:55:39.691Z,476.90
2018-01-20T16:58:08.904Z,486.73
2018-01-20T17:00:38.061Z,481.07
2018-01-20T17:03:07.237Z,494.60
2018-01-20T17:05:36.397Z,483.77
2018-01-20T17:08:05.575Z,511.63
2018-01-20T17:10:34.763Z,525.70
2018-01-20T17:13:03.909Z,500.83
2018-01-20T17:15:33.110Z,450.23
2018-01-20T17:18:02.263Z,435.33
2018-01-20T17:20:31.468Z,394.90
2018-01-20T17:23:00.617Z,402.77
2018-01-20T17:25:29.810Z,361.73
2018-01-20T17:27:58.962Z,330.73
2018-01-20T17:30:28.265Z,319.40
2018-01-20T17:32:57.413Z,310.80
2018-01-20T17:35:26.563Z,290.53
2018-01-20T17:37:55.705Z,293.57
2018-01-20T17:40:24.883Z,296.60
2018-01-20T17:42:54.041Z,294.37
2018-01-20T17:45:23.220Z,298.17
2018-01-20T17:47:52.449Z,309.23
2018-01-20T17:50:21.610Z,293.87
2018-01-20T17:52:50.770Z,308.57
2018-01-20T17:55:19.950Z,329.57
2018-01-20T17:57:49.121Z,347.27
2018-01-20T18:00:18.274Z,386.07
2018-01-20T18:02:47.461Z,422.60
2018-01-20T18:05:16.635Z,468.37
2018-01-20T18:07:45.779Z,493.97
2018-01-20T18:10:14.961Z,515.27
2018-01-20T18:12:44.106Z,511.27
2018-01-20T18:15:13.286Z,461.77
2018-01-20T18:17:42.441Z,399.77
2018-01-20T18:20:11.626Z,379.03
2018-01-20T18:22:40.781Z,353.57
2018-01-20T18:25:09.990Z,361.97
2018-01-20T18:27:39.146Z,340.93
2018-01-20T18:30:08.294Z,356.90
2018-01-20T18:32:37.489Z,364.90
2018-01-20T18:35:07.122Z,384.60
2018-01-20T18:37:36.609Z,381.40
2018-01-20T18:40:05.803Z,368.23
2018-01-20T18:42:34.958Z,354.20
2018-01-20T18:45:04.147Z,324.37
2018-01-20T18:47:33.287Z,327.20
2018-01-20T18:50:02.470Z,321.30
2018-01-20T18:52:31.641Z,327.57
2018-01-20T18:55:00.927Z,337.17
2018-01-20T18:57:30.072Z,333.27
2018-01-20T18:59:59.232Z,333.67
2018-01-20T19:02:28.386Z,317.93
2018-01-20T19:04:57.586Z,336.93
2018-01-20T19:07:26.817Z,324.50
2018-01-20T19:09:55.972Z,314.47
2018-01-20T19:12:25.157Z,305.30
2018-01-20T19:14:54.305Z,307.43
2018-01-20T19:17:23.518Z,295.00
2018-01-20T19:19:52.662Z,307.67
2018-01-20T19:22:21.819Z,304.47
2018-01-20T19:24:50.994Z,316.47
2018-01-20T19:27:20.146Z,321.67
2018-01-20T19:29:49.299Z,333.37
2018-01-20T19:32:18.449Z,348.73
2018-01-20T19:34:47.606Z,335.03
2018-01-20T19:37:16.783Z,355.37
2018-01-20T19:39:45.928Z,357.60
2018-01-20T19:42:15.141Z,363.40
2018-01-20T19:44:44.323Z,373.07
2018-01-20T19:47:13.553Z,394.63
2018-01-20T19:49:42.685Z,396.53
2018-01-20T19:52:11.870Z,414.30
2018-01-20T19:54:41.051Z,437.03
2018-01-20T19:57:10.200Z,454.10
2018-01-20T19:59:39.463Z,460.63
2018-01-20T20:02:08.615Z,485.60
2018-01-20T20:04:37.765Z,490.30
2018-01-20T20:07:06.917Z,496.57
2018-01-20T20:09:36.080Z,513.73
2018-01-20T20:12:05.242Z,526.23
2018-01-20T20:14:34.397Z,516.57
2018-01-20T20:17:03.561Z,522.63
2018-01-20T20:19:32.740Z,530.23
2018-01-20T20:22:01.923Z,554.63
2018-01-20T20:24:31.135Z,553.57
2018-01-20T20:27:00.273Z,560.83
2018-01-20T20:29:29.421Z,589.10
2018-01-20T20:31:58.583Z,607.40
2018-01-20T20:34:27.742Z,613.93
2018-01-20T20:36:56.885Z,621.50
2018-01-20T20:39:26.057Z,614.50
2018-01-20T20:41:55.227Z,608.20
2018-01-20T20:44:24.374Z,607.57
2018-01-20T20:46:53.656Z,604.27
2018-01-20T20:49:22.806Z,589.77
2018-01-20T20:51:52.004Z,584.07
2018-01-20T20:54:21.157Z,583.87
2018-01-20T20:56:50.362Z,578.90
2018-01-20T20:59:19.496Z,585.63
2018-01-20T21:01:48.640Z,580.87
2018-01-20T21:04:17.806Z,561.60
2018-01-20T21:06:46.988Z,561.53
2018-01-20T21:09:16.140Z,563.83
2018-01-20T21:11:45.327Z,556.23
2018-01-20T21:14:14.524Z,538.53
2018-01-20T21:16:43.669Z,525.70
2018-01-20T21:19:12.841Z,529.37
2018-01-20T21:21:42.016Z,521.77
2018-01-20T21:24:11.153Z,514.63
2018-01-20T21:26:40.345Z,495.73
2018-01-20T21:29:09.489Z,506.90
2018-01-20T21:31:38.723Z,502.30
2018-01-20T21:34:07.829Z,483.60
2018-01-20T21:36:37.199Z,469.30
2018-01-20T21:39:06.342Z,469.27
2018-01-20T21:41:35.490Z,468.40
2018-01-20T21:44:04.635Z,451.90
2018-01-20T21:46:33.841Z,435.10
2018-01-20T21:49:02.965Z,427.07
2018-01-20T21:51:32.134Z,412.57
2018-01-20T21:54:01.323Z,416.67
2018-01-20T21:56:30.463Z,402.30
2018-01-20T21:58:59.641Z,405.47
2018-01-20T22:01:28.779Z,405.17
2018-01-20T22:03:57.970Z,388.10
2018-01-20T22:06:27.142Z,387.57
2018-01-20T22:08:56.325Z,394.23
2018-01-20T22:11:25.465Z,411.40
2018-01-20T22:13:54.639Z,423.20
2018-01-20T22:16:23.782Z,456.50
2018-01-20T22:18:52.961Z,469.60
2018-01-20T22:21:22.113Z,454.00
2018-01-20T22:23:51.286Z,462.97
2018-01-20T22:26:20.429Z,477.97
2018-01-20T22:28:49.616Z,473.60
2018-01-20T22:31:18.759Z,483.77
2018-01-20T22:33:47.908Z,495.43
2018-01-20T22:36:17.097Z,494.20
2018-01-20T22:38:46.248Z,485.40
2018-01-20T22:41:15.441Z,493.93
2018-01-20T22:43:44.573Z,490.40
2018-01-20T22:46:13.760Z,486.77
2018-01-20T22:48:42.928Z,488.37
2018-01-20T22:51:12.083Z,486.50
2018-01-20T22:53:41.241Z,491.60
2018-01-20T22:56:10.388Z,491.63
2018-01-20T22:58:39.566Z,476.10
2018-01-20T23:01:14.514Z,459.93
2018-01-20T23:03:43.696Z,468.67
2018-01-20T23:06:12.848Z,453.50
2018-01-20T23:08:41.994Z,435.20
2018-01-20T23:11:11.137Z,436.77
2018-01-20T23:13:40.328Z,428.80
2018-01-20T23:16:09.500Z,415.40
2018-01-20T23:18:38.650Z,415.60
2018-01-20T23:21:07.801Z,414.13
2018-01-20T23:23:36.982Z,394.33
2018-01-20T23:26:06.118Z,395.93
2018-01-20T23:28:35.290Z,388.30
2018-01-20T23:31:04.433Z,384.33
2018-01-20T23:33:33.616Z,374.70
2018-01-20T23:36:02.835Z,380.83
2018-01-20T23:38:31.985Z,362.07
2018-01-20T23:41:01.135Z,357.03
2018-01-20T23:43:30.284Z,347.03
2018-01-20T23:45:59.518Z,348.33
2018-01-20T23:48:28.680Z,332.37
2018-01-20T23:50:57.825Z,332.30
2018-01-20T23:53:27.003Z,324.80
2018-01-20T23:55:56.188Z,341.13
2018-01-20T23:58:25.334Z,337.27
